Date,TemperatureHighF,TemperatureAvgF,TemperatureLowF,DewpointHighF,DewpointAvgF,DewpointLowF,HumidityHigh,HumidityAvg,HumidityLow,PressureMaxIn,PressureMinIn,WindSpeedMaxMPH,WindSpeedAvgMPH,GustSpeedMaxMPH,PrecipitationSumIn
2013-1-1,42,38,35,31,27,18,76,66,43,0.00,40.00,6,4,19,0.01
2013-1-2,36,33,28,28,17,2,74,53,27,0.00,40.00,4,2,12,0.01
2013-1-3,40,30,23,15,11,9,59,46,31,0.00,40.00,7,2,15,0.00
2013-1-4,37,30,25,17,15,13,63,54,43,0.00,40.00,8,5,31,0.00
2013-1-5,44,35,27,19,16,13,61,46,33,0.00,40.00,7,3,28,0.00
2013-1-6,40,37,34,25,23,19,60,56,49,0.00,40.00,7,4,18,0.01
2013-1-7,43,34,27,25,20,18,69,55,38,0.00,40.00,5,3,17,0.00
2013-1-8,52,37,26,28,22,19,80,57,35,0.00,40.00,3,1,8,0.00
2013-1-9,56,42,32,45,32,22,79,66,42,0.00,40.00,7,3,21,0.00
2013-1-10,51,45,40,31,27,24,66,50,42,0.00,40.00,4,1,17,0.00
2013-1-11,43,40,39,38,34,26,96,79,51,0.00,40.00,4,1,7,0.05
2013-1-12,69,51,38,55,46,37,96,85,61,0.00,40.00,4,2,9,0.01
2013-1-13,64,59,55,56,54,53,96,85,69,0.00,40.00,6,3,12,0.00
2013-1-14,59,53,43,57,47,41,95,82,66,0.00,40.00,7,3,22,0.47
2013-1-15,41,38,34,40,37,33,96,96,95,0.00,40.00,3,1,7,1.14
2013-1-16,44,38,33,43,36,32,97,93,82,0.00,40.00,6,2,12,1.11
2013-1-17,41,36,32,36,28,18,94,75,43,0.00,40.00,5,2,18,0.03
2013-1-18,42,31,27,23,14,4,69,50,20,0.00,40.00,7,4,28,0.07
2013-1-19,52,35,22,27,20,15,81,57,28,0.00,40.00,7,4,16,0.01
2013-1-20,51,42,35,27,17,4,53,36,26,0.00,40.00,9,6,25,0.00
2013-1-21,44,33,24,11,5,-2,40,30,22,0.00,40.00,12,6,29,0.00
2013-1-22,22,15,10,2,-8,-11,47,36,24,0.00,40.00,9,6,20,0.00
2013-1-23,28,18,10,11,-4,-10,63,39,18,0.00,40.00,9,5,22,0.00
2013-1-24,22,18,11,18,3,-6,85,52,30,0.00,40.00,9,4,23,0.00
2013-1-25,28,16,10,22,7,-4,85,67,47,0.00,40.00,8,3,24,0.00
2013-1-26,32,28,25,22,16,13,75,61,52,0.00,40.00,10,5,25,0.05
2013-1-27,37,27,18,21,16,10,75,65,49,0.00,40.00,5,2,15,0.01
2013-1-28,54,38,29,46,33,21,94,86,72,0.00,40.00,11,3,29,0.19
2013-1-29,74,59,51,52,48,43,90,69,42,0.00,40.00,8,5,23,0.11
2013-1-30,60,56,51,59,53,47,97,89,75,0.00,40.00,10,4,34,2.82
2013-1-31,49,30,26,46,16,9,90,56,43,0.00,40.00,10,7,32,1.27
2013-2-1,28,18,12,24,4,-4,89,55,35,0.00,40.00,10,7,27,0.02
2013-2-2,28,20,10,24,10,-2,91,67,43,0.00,40.00,7,3,19,0.01
2013-2-3,35,28,23,23,17,9,75,64,54,0.00,40.00,11,5,27,0.13
2013-2-4,37,27,20,32,14,6,87,57,47,0.00,40.00,12,7,29,0.02
2013-2-5,43,40,36,32,29,27,80,65,59,0.00,40.00,11,6,31,0.03
2013-2-6,47,39,33,31,24,19,68,56,36,0.00,40.00,9,4,23,0.00
2013-2-7,37,34,30,28,24,20,79,69,55,0.00,40.00,4,2,7,0.00
2013-2-8,49,34,30,39,27,21,91,76,52,0.00,40.00,10,4,25,0.03
2013-2-9,44,32,24,19,8,1,65,39,18,0.00,40.00,15,7,36,0.03
2013-2-10,41,34,24,28,12,5,79,41,33,0.00,40.00,7,4,15,0.03
2013-2-11,59,44,34,52,32,10,95,68,23,0.00,40.00,13,6,27,0.09
2013-2-12,55,44,36,21,16,8,49,34,16,0.00,40.00,9,6,21,0.05
2013-2-13,42,37,33,32,22,13,94,60,30,0.00,40.00,3,2,15,0.06
2013-2-14,47,37,28,27,21,17,76,55,35,0.00,40.00,6,4,17,0.07
2013-2-15,52,38,31,33,28,22,87,66,39,0.00,40.00,8,4,19,0.11
2013-2-16,33,29,22,25,15,7,72,57,43,0.00,40.00,7,4,20,0.08
2013-2-17,24,18,13,10,-1,-5,62,43,29,0.00,40.00,9,6,22,0.00
2013-2-18,47,30,15,16,7,-2,48,39,23,0.00,40.00,8,3,14,0.00
2013-2-19,46,37,31,40,24,10,94,62,39,0.00,40.00,10,6,28,0.15
2013-2-20,35,28,23,11,8,6,52,42,33,0.00,40.00,10,7,23,0.04
2013-2-21,45,29,19,13,8,6,57,43,24,0.00,40.00,7,4,17,0.00
2013-2-22,32,29,26,25,20,12,88,71,47,0.00,40.00,5,3,12,0.06
2013-2-23,53,39,29,37,32,25,94,77,51,0.00,40.00,4,2,9,0.01
2013-2-24,49,41,32,38,23,13,81,51,25,0.00,40.00,8,5,21,0.00
2013-2-25,42,31,24,17,14,12,65,51,33,0.00,40.00,6,2,13,0.00
2013-2-26,37,32,28,36,24,13,95,74,52,0.00,40.00,6,3,15,0.70
2013-2-27,44,39,35,38,31,27,96,75,57,0.00,40.00,9,4,22,0.22
2013-2-28,36,33,31,29,23,20,80,67,58,0.00,40.00,7,4,18,0.02
2013-3-1,34,32,29,25,20,17,74,61,54,0.00,40.00,6,4,15,0.00
2013-3-2,31,27,25,17,14,12,63,57,47,0.00,40.00,8,4,20,0.00
2013-3-3,32,25,22,14,10,5,63,52,36,0.00,40.00,9,6,22,0.08
2013-3-4,45,30,20,9,7,4,59,40,20,0.00,40.00,6,4,29,0.08
2013-3-5,45,35,30,32,20,5,99,57,30,0.00,40.00,4,2,8,0.02
2013-3-6,41,33,28,31,28,25,99,83,59,0.00,40.00,10,5,22,0.64
2013-3-7,40,35,33,26,24,20,75,65,48,0.00,40.00,8,5,18,0.01
2013-3-8,44,36,31,24,21,17,71,54,39,0.00,40.00,8,5,23,0.00
2013-3-9,57,41,25,26,19,14,83,48,19,0.00,40.00,3,2,7,0.00
2013-3-10,61,49,36,30,23,15,44,36,29,0.00,40.00,6,3,15,0.00
2013-3-11,53,48,43,48,31,20,98,53,36,0.00,40.00,9,4,19,0.04
2013-3-12,51,45,33,51,39,24,100,79,47,0.00,40.00,9,5,22,0.79
2013-3-13,42,34,26,27,20,12,74,59,38,0.00,40.00,7,5,27,0.05
2013-3-14,43,31,22,16,12,9,69,46,27,0.00,40.00,9,6,29,0.00
2013-3-15,57,43,31,30,21,10,46,41,35,0.00,40.00,9,6,24,0.00
2013-3-16,69,53,42,54,43,29,98,69,44,0.00,40.00,6,4,29,0.62
2013-3-17,52,42,33,42,37,32,98,83,61,0.00,40.00,4,3,11,0.20
2013-3-18,32,30,28,32,30,27,99,98,96,0.00,40.00,4,2,10,0.26
2013-3-19,54,40,30,39,21,-1,99,57,15,0.00,40.00,15,6,34,0.31
2013-3-20,50,38,30,23,8,1,60,28,18,0.00,40.00,11,6,26,0.00
2013-3-21,31,25,20,27,10,2,86,52,35,0.00,40.00,7,5,17,0.00
2013-3-22,44,30,19,13,9,5,61,43,25,0.00,40.00,6,4,16,0.00
2013-3-23,54,39,27,19,12,7,50,34,20,0.00,40.00,6,3,15,0.00
2013-3-24,37,33,28,29,20,9,97,65,31,0.00,40.00,4,3,8,0.03
2013-3-25,38,32,27,29,26,20,98,79,54,0.00,40.00,7,4,20,0.55
2013-3-26,41,35,30,27,23,17,75,63,41,0.00,40.00,7,4,16,0.06
2013-3-27,38,33,29,27,22,18,76,66,47,0.00,40.00,6,4,16,0.01
2013-3-28,42,38,36,22,21,19,56,50,39,0.00,40.00,5,4,15,0.00
2013-3-29,53,43,36,26,22,16,59,44,25,0.00,40.00,6,3,14,0.00
2013-3-30,62,46,32,29,22,-100,70,43,23,0.00,40.00,7,2,15,0.00
2013-3-31,52,46,39,51,37,23,100,75,38,0.00,40.00,9,3,23,0.26
2013-4-1,54,45,35,47,34,20,80,66,49,0.00,40.00,9,5,23,0.02
2013-4-2,49,37,31,20,12,5,54,37,18,0.00,40.00,8,4,17,0.02
2013-4-3,50,38,29,14,8,3,44,30,16,0.00,40.00,7,4,17,0.00
2013-4-4,45,34,28,31,15,5,98,51,30,0.00,40.00,5,3,13,0.00
2013-4-5,61,45,31,41,29,21,99,62,24,0.00,40.00,7,3,18,0.53
2013-4-6,64,49,35,25,21,13,58,36,17,0.00,40.00,6,4,14,0.19
2013-4-7,72,54,38,40,32,18,70,46,30,0.00,40.00,8,5,16,0.00
2013-4-8,79,63,51,47,42,38,70,49,24,0.00,40.00,8,3,19,0.00
2013-4-9,83,71,60,52,46,40,60,44,28,0.00,40.00,8,4,20,0.00
2013-4-10,89,77,66,53,45,38,48,34,22,0.00,40.00,8,5,20,0.00
2013-4-11,83,71,63,57,51,46,70,50,28,0.00,40.00,7,4,20,0.00
2013-4-12,73,62,53,62,50,32,100,69,30,0.00,40.00,10,6,30,1.14
2013-4-13,68,55,46,34,28,21,56,38,20,0.00,40.00,13,6,27,0.01
2013-4-14,75,61,48,35,30,21,47,32,22,0.00,40.00,6,4,15,0.00
2013-4-15,64,53,49,51,48,34,100,88,32,0.00,40.00,4,2,11,0.71
2013-4-16,76,60,52,62,55,51,100,85,55,0.00,40.00,6,3,13,0.06
2013-4-17,80,68,58,62,56,52,94,70,41,0.00,40.00,4,2,10,0.02
2013-4-18,72,65,61,61,57,52,92,75,54,0.00,40.00,8,4,20,0.00
2013-4-19,65,60,45,62,55,34,99,84,66,0.00,40.00,7,6,21,1.07
2013-4-20,58,46,36,33,23,16,66,42,22,0.00,40.00,7,5,20,0.01
2013-4-21,57,45,33,28,24,19,61,44,30,0.00,40.00,5,3,10,0.00
2013-4-22,60,46,34,28,23,17,62,44,19,0.00,40.00,6,4,14,0.00
2013-4-23,73,54,39,42,36,30,78,54,27,0.00,40.00,6,4,14,0.00
2013-4-24,74,59,48,55,46,39,87,64,39,0.00,40.00,12,5,25,0.03
2013-4-25,65,51,37,38,25,13,68,42,14,0.00,40.00,7,4,18,0.03
2013-4-26,69,54,38,32,28,20,58,37,20,0.00,40.00,7,3,16,0.00
2013-4-27,73,58,47,43,33,-100,61,43,24,0.00,40.00,6,3,15,0.00
2013-4-28,55,50,48,49,47,43,99,90,65,0.00,40.00,6,4,17,0.43
2013-4-29,69,53,47,58,51,47,100,92,63,0.00,40.00,3,2,12,0.19
2013-4-30,72,60,54,58,53,50,100,78,55,0.00,40.00,5,3,12,0.05
2013-5-1,71,58,51,52,46,32,98,68,28,0.00,40.00,5,3,14,0.01
2013-5-2,72,60,52,45,40,36,61,48,36,0.00,40.00,5,3,11,0.00
2013-5-3,66,54,45,44,42,38,92,64,41,0.00,40.00,6,3,14,0.00
2013-5-4,63,52,40,43,39,35,90,64,40,0.00,40.00,6,4,16,0.00
2013-5-5,60,52,42,43,36,29,76,56,35,0.00,40.00,7,5,15,0.00
2013-5-6,53,51,47,53,49,43,99,94,80,0.00,40.00,6,4,14,1.00
2013-5-7,56,52,48,55,51,48,100,99,94,0.00,40.00,7,3,13,1.66
2013-5-8,59,51,47,54,50,47,100,95,76,0.00,40.00,3,2,6,0.75
2013-5-9,76,62,45,54,48,41,100,67,30,0.00,40.00,6,3,17,0.04
2013-5-10,79,65,53,63,54,46,100,71,42,0.00,40.00,7,3,21,0.12
2013-5-11,75,62,56,57,53,-100,100,77,46,0.00,40.00,8,4,20,0.14
2013-5-12,60,53,44,49,32,23,77,48,27,0.00,40.00,8,5,24,0.01
2013-5-13,57,45,37,32,27,25,69,50,31,0.00,40.00,7,3,17,0.00
2013-5-14,70,50,32,38,32,28,92,56,25,0.00,40.00,6,3,15,0.00
2013-5-15,91,68,48,56,45,39,75,49,21,0.00,40.00,10,4,29,0.00
2013-5-16,82,63,58,63,30,-100,97,57,39,0.00,40.00,6,4,17,0.89
2013-5-17,76,63,55,66,52,-100,99,81,53,0.00,40.00,3,2,10,0.38
2013-5-18,71,64,60,64,61,57,99,91,73,0.00,40.00,5,2,13,0.33
2013-5-19,63,61,59,63,61,59,100,100,99,0.00,40.00,3,2,6,0.83
2013-5-20,79,66,61,68,64,61,100,95,69,0.00,40.00,5,2,10,0.12
2013-5-21,83,71,61,71,64,61,100,83,55,0.00,40.00,5,3,12,0.03
2013-5-22,87,70,61,69,61,55,100,75,42,0.00,40.00,5,2,16,0.28
2013-5-23,76,65,60,68,62,55,100,90,75,0.00,40.00,6,3,17,0.45
2013-5-24,61,53,46,54,41,30,82,65,43,0.00,40.00,8,5,22,0.17
2013-5-25,65,52,39,33,28,18,69,43,17,0.00,40.00,7,4,21,0.00
2013-5-26,73,58,45,39,29,21,69,38,14,0.00,40.00,5,3,16,0.00
2013-5-27,72,57,44,49,40,27,72,53,37,0.00,40.00,4,2,10,0.00
2013-5-28,84,68,53,63,55,49,93,66,34,0.00,40.00,7,3,21,0.00
2013-5-29,87,74,62,63,58,55,91,63,35,0.00,40.00,5,3,14,0.00
2013-5-30,90,74,62,67,60,50,89,64,26,0.00,40.00,5,3,11,0.00
2013-5-31,86,73,60,65,61,57,92,68,44,0.00,40.00,6,3,13,0.00
2013-6-1,85,71,64,72,62,-100,95,78,52,0.00,40.00,6,3,15,0.23
2013-6-2,76,69,65,68,63,59,97,82,67,0.00,40.00,6,4,18,0.01
2013-6-3,80,69,62,64,59,54,99,75,51,0.00,40.00,4,2,13,0.00
2013-6-4,80,67,54,58,55,53,96,69,43,0.00,40.00,3,2,10,0.00
2013-6-5,75,67,61,66,60,57,89,78,62,0.00,40.00,6,3,13,0.00
2013-6-6,64,61,58,62,60,58,100,97,87,0.00,40.00,4,2,10,2.14
2013-6-7,70,64,61,67,63,56,100,95,78,0.00,40.00,5,2,15,0.18
2013-6-8,80,67,57,66,57,50,97,72,43,0.00,40.00,5,3,13,0.10
2013-6-9,83,70,60,69,62,59,99,79,53,0.00,40.00,8,2,19,0.89
2013-6-10,72,66,62,70,65,62,100,98,89,0.00,40.00,6,3,17,2.18
2013-6-11,78,68,60,63,60,57,100,79,55,0.00,40.00,5,3,20,0.04
2013-6-12,88,76,66,70,64,59,83,68,52,0.00,40.00,5,3,16,0.01
2013-6-13,75,70,61,69,63,52,97,79,63,0.00,40.00,10,5,31,0.22
2013-6-14,74,65,57,56,52,50,83,63,48,0.00,40.00,5,3,16,0.01
2013-6-15,80,67,53,59,54,51,98,65,39,0.00,40.00,4,2,9,0.00
2013-6-16,81,68,57,65,59,51,93,75,55,0.00,40.00,7,3,17,0.08
2013-6-17,85,73,65,66,63,60,92,73,50,0.00,40.00,5,3,12,0.08
2013-6-18,70,65,61,66,63,56,99,93,75,0.00,40.00,5,2,11,0.80
2013-6-19,80,66,56,66,61,56,100,84,62,0.00,40.00,4,2,11,0.01
2013-6-20,80,69,63,66,63,61,98,84,60,0.00,40.00,5,3,10,0.00
2013-6-22,85,78,70,64,60,56,81,56,38,0.00,40.00,3,2,7,0.00
2013-6-23,88,74,64,72,65,63,98,77,50,0.00,40.00,4,2,9,0.00
2013-6-24,85,73,64,73,66,63,99,82,60,0.00,40.00,5,2,19,0.11
2013-6-25,88,73,62,73,66,62,99,82,51,0.00,40.00,4,2,12,0.11
2013-6-26,85,75,68,71,67,63,93,78,57,0.00,40.00,5,3,14,0.00
2013-6-27,79,70,66,68,66,62,99,87,65,0.00,40.00,7,3,16,0.02
2013-6-28,87,75,66,67,61,54,98,65,38,0.00,40.00,8,4,20,0.02
2013-6-29,82,71,61,66,60,52,94,69,44,0.00,40.00,4,3,14,0.02
2013-6-30,86,72,62,69,65,62,99,81,51,0.00,40.00,9,2,16,0.45
2013-7-1,79,68,61,72,65,60,99,91,69,0.00,40.00,4,2,10,0.53
2013-7-2,75,69,66,73,67,65,99,95,84,0.00,40.00,6,3,16,0.26
2013-7-3,72,68,66,71,68,66,100,98,93,0.00,40.00,5,2,11,1.08
2013-7-4,80,71,66,73,69,66,100,92,70,0.00,40.00,6,3,13,1.70
2013-7-5,82,72,67,75,69,64,100,93,72,0.00,40.00,6,3,12,0.72
2013-7-6,84,72,65,72,68,65,100,87,63,0.00,40.00,5,2,12,0.04
2013-7-7,80,70,65,73,67,65,99,91,75,0.00,40.00,5,2,13,0.07
2013-7-8,82,68,62,71,65,60,100,89,58,0.00,40.00,4,2,11,0.04
2013-7-9,84,73,65,73,67,61,97,82,63,0.00,40.00,4,2,7,0.01
2013-7-10,81,70,68,73,64,-100,99,87,73,0.00,40.00,3,2,12,0.28
2013-7-11,81,71,67,71,68,62,100,90,61,0.00,40.00,7,2,14,0.76
2013-7-12,74,66,62,67,63,61,99,90,73,0.00,40.00,4,3,11,0.37
2013-7-13,77,69,63,68,65,62,98,88,67,0.00,40.00,4,2,8,0.10
2013-7-14,85,74,67,71,68,66,99,82,56,0.00,40.00,3,2,10,0.11
2013-7-15,90,76,67,73,68,63,99,78,48,0.00,40.00,3,1,7,0.00
2013-7-16,91,78,69,73,70,66,96,78,49,0.00,40.00,5,2,10,0.00
2013-7-17,87,75,68,77,70,63,98,87,54,0.00,40.00,4,2,8,0.09
2013-7-18,91,78,68,76,72,68,99,83,55,0.00,40.00,3,1,6,0.09
2013-7-19,90,76,69,77,71,69,99,87,62,0.00,40.00,4,2,10,0.00
2013-7-20,87,76,68,73,67,-100,99,79,57,0.00,40.00,4,3,12,0.68
2013-7-21,83,72,64,73,68,64,99,90,69,0.00,40.00,6,2,14,0.75
2013-7-22,82,71,67,73,69,67,99,94,67,0.00,40.00,4,1,13,0.16
2013-7-23,85,74,68,70,65,60,99,76,53,0.00,40.00,5,3,15,0.07
2013-7-24,87,74,67,70,64,59,92,74,52,0.00,40.00,4,2,11,0.00
2013-7-25,80,69,59,62,58,53,85,70,49,0.00,40.00,4,2,8,0.00
2013-7-26,83,69,57,65,60,54,92,75,53,0.00,40.00,5,2,11,0.00
2013-7-27,68,66,65,67,65,63,99,95,88,0.00,40.00,4,3,10,0.25
2013-7-28,81,70,64,66,63,56,99,81,56,0.00,40.00,6,3,15,0.01
2013-7-29,78,65,55,58,53,49,90,67,44,0.00,40.00,5,2,11,0.01
2013-7-30,80,66,53,61,56,49,95,71,46,0.00,40.00,3,2,7,0.00
2013-7-31,71,64,62,65,61,58,99,91,74,0.00,40.00,4,1,8,0.33
2013-8-1,80,69,61,70,63,60,99,84,58,0.00,40.00,4,2,11,0.27
2013-8-2,81,70,59,65,60,56,98,72,48,0.00,40.00,4,2,17,0.04
2013-8-3,81,68,61,66,61,55,89,77,57,0.00,40.00,4,2,12,0.00
2013-8-4,79,68,59,61,57,52,95,69,44,0.00,40.00,4,2,14,0.00
2013-8-5,76,64,53,61,56,50,97,75,55,0.00,40.00,5,2,9,0.00
2013-8-6,82,70,63,69,64,60,97,83,59,0.00,40.00,3,1,9,0.04
2013-8-7,73,69,67,69,67,66,99,93,83,0.00,40.00,4,2,10,0.03
2013-8-8,78,70,67,73,69,67,99,97,78,0.00,40.00,4,2,10,0.28
2013-8-9,85,75,69,72,69,67,99,83,61,0.00,40.00,8,4,21,0.16
2013-8-10,84,74,68,72,67,60,96,79,62,0.00,40.00,3,2,10,0.10
2013-8-11,78,71,66,74,68,61,99,91,79,0.00,40.00,4,1,8,0.46
2013-8-12,84,73,65,72,67,64,99,84,60,0.00,40.00,3,2,9,0.01
2013-8-13,81,70,66,69,63,-100,97,81,61,0.00,40.00,4,3,15,0.05
2013-8-14,73,64,56,59,50,45,84,64,41,0.00,40.00,4,3,12,0.03
2013-8-15,73,54,47,56,39,-100,96,69,48,0.00,40.00,3,1,8,0.00
2013-8-16,78,61,50,57,50,-100,98,74,47,0.00,40.00,3,1,7,0.00
2013-8-17,72,61,53,59,54,-100,99,81,60,0.00,40.00,4,2,10,0.03
2013-8-18,69,62,58,65,61,57,99,95,83,0.00,40.00,3,2,7,0.43
2013-8-19,74,62,62,68,54,-100,99,93,81,0.00,40.00,4,2,9,0.04
2013-8-20,84,70,62,69,63,-100,99,84,56,0.00,40.00,3,2,7,0.01
2013-8-21,79,70,65,72,67,64,99,91,69,0.00,40.00,4,2,10,0.45
2013-8-22,80,70,61,74,64,59,99,83,63,0.00,40.00,4,2,11,0.55
2013-8-23,78,67,60,72,63,59,97,86,59,0.00,40.00,7,2,16,0.05
2013-8-24,80,64,51,63,54,-100,99,75,47,0.00,40.00,3,2,7,0.02
2013-8-25,80,65,55,61,56,53,97,74,44,0.00,40.00,3,2,8,0.00
2013-8-26,83,68,55,63,58,53,98,74,48,0.00,40.00,3,2,11,0.00
2013-8-27,82,72,63,69,63,58,91,75,57,0.00,40.00,4,2,12,0.00
2013-8-28,80,75,70,72,70,67,98,86,70,0.00,40.00,5,3,13,0.71
2013-8-29,83,73,68,73,68,64,99,84,58,0.00,40.00,5,3,10,0.14
2013-8-30,82,71,63,72,67,63,99,87,65,0.00,40.00,5,2,10,0.00
2013-8-31,85,70,65,72,66,-100,99,89,64,0.00,40.00,4,2,13,0.15
2013-9-1,80,70,64,72,67,63,99,90,74,0.00,40.00,3,1,6,0.15
2013-9-2,85,73,66,71,66,61,98,79,56,0.00,40.00,5,2,11,0.01
2013-9-3,81,70,64,70,61,55,98,75,47,0.00,40.00,4,2,11,0.16
2013-9-4,81,66,54,61,56,50,97,73,49,0.00,40.00,4,2,11,0.01
2013-9-5,81,67,54,61,55,49,94,69,44,0.00,40.00,6,3,13,0.00
2013-9-6,78,64,54,56,54,51,95,71,43,0.00,40.00,4,2,8,0.00
2013-9-7,82,65,53,62,53,-100,97,70,44,0.00,40.00,3,2,9,0.00
2013-9-8,84,70,59,65,58,50,81,66,45,0.00,40.00,4,2,10,0.00
2013-9-9,75,68,65,65,63,61,96,84,71,0.00,40.00,2,0,4,0.00
2013-9-10,89,74,64,73,67,63,98,83,53,0.00,40.00,0,0,0,0.00
2013-9-11,89,74,66,73,67,65,99,83,50,0.00,40.00,0,0,0,0.00
2013-9-12,83,72,65,70,65,59,98,80,55,0.00,40.00,5,1,14,0.00
2013-9-13,74,64,56,60,51,40,91,66,37,0.00,40.00,5,3,12,0.01
2013-9-14,73,55,45,50,43,-100,87,67,39,0.00,40.00,4,2,10,0.01
2013-9-15,71,56,45,58,50,44,98,82,55,0.00,40.00,4,1,9,0.00
2013-9-16,71,60,53,60,54,46,98,82,59,0.00,40.00,4,2,10,0.00
2013-9-17,72,57,47,53,48,45,98,76,43,0.00,40.00,3,2,8,0.00
2013-9-18,56,50,47,53,48,46,98,92,87,0.00,40.00,1,0,4,0.00
2013-9-19,76,62,56,64,58,54,98,88,67,0.00,40.00,5,2,9,0.00
2013-9-20,77,66,61,68,63,60,98,90,68,0.00,40.00,4,2,12,0.00
2013-9-21,63,61,57,63,59,-100,99,96,92,0.00,40.00,5,3,14,0.71
2013-9-22,71,58,51,56,51,45,98,80,50,0.00,40.00,5,2,11,0.03
2013-9-23,72,55,44,54,48,43,98,80,52,0.00,40.00,4,2,8,0.00
2013-9-24,77,60,51,60,54,47,95,80,55,0.00,40.00,3,1,6,0.00
2013-9-25,70,60,54,59,56,53,99,88,61,0.00,40.00,4,1,7,0.00
2013-9-26,75,62,54,58,55,47,98,78,49,0.00,40.00,3,2,7,0.01
2013-9-27,74,59,48,54,50,47,97,73,42,0.00,40.00,3,1,6,0.01
2013-9-28,65,57,51,55,50,-100,93,81,62,0.00,40.00,3,1,7,0.00
2013-9-29,71,57,47,52,49,45,94,76,47,0.00,40.00,3,2,6,0.00
2013-9-30,74,60,49,56,52,48,97,76,50,0.00,40.00,3,2,8,0.00
2013-10-1,65,64,59,53,52,52,81,67,63,0.00,40.00,3,2,7,0.00
2013-10-2,80,65,53,61,55,49,98,72,45,0.00,40.00,5,2,9,0.00
2013-10-3,81,65,55,62,56,51,96,75,47,0.00,40.00,4,1,8,0.00
2013-10-4,81,66,56,68,60,55,98,82,51,0.00,40.00,4,1,9,0.07
2013-10-5,84,70,60,67,62,59,99,79,53,0.00,40.00,3,2,8,0.01
2013-10-6,80,68,60,67,60,56,98,78,50,0.00,40.00,6,3,14,0.01
2013-10-7,67,60,51,64,53,39,99,78,57,0.00,40.00,6,4,18,1.29
2013-10-8,64,52,43,46,42,39,88,68,44,0.00,40.00,5,2,13,0.01
2013-10-9,61,52,46,46,41,37,82,67,44,0.00,40.00,5,3,9,0.00
2013-10-10,66,55,47,57,50,44,97,85,71,0.00,40.00,4,3,12,0.03
2013-10-11,68,58,53,56,53,50,94,85,63,0.00,40.00,4,3,11,0.02
2013-10-12,66,60,56,60,54,-100,98,86,74,0.00,40.00,5,3,9,0.01
2013-10-13,63,59,57,58,57,55,98,92,81,0.00,40.00,4,2,9,0.04
2013-10-14,65,58,55,58,56,54,99,92,76,0.00,40.00,3,2,7,0.06
2013-10-15,67,58,52,53,51,48,98,80,50,0.00,40.00,3,1,6,0.01
2013-10-16,65,57,50,57,53,49,98,86,70,0.00,40.00,3,1,7,0.00
2013-10-17,63,58,54,61,56,47,98,93,78,0.00,40.00,4,2,13,0.13
2013-10-18,65,53,45,44,40,35,74,61,39,0.00,40.00,4,3,12,0.09
2013-10-19,60,50,44,51,42,-100,96,77,50,0.00,40.00,5,2,16,0.00
2013-10-20,61,47,38,36,32,29,74,57,32,0.00,40.00,4,2,14,0.00
2013-10-21,66,50,36,45,39,30,92,68,42,0.00,40.00,5,2,10,0.00
2013-10-22,61,52,46,46,42,37,91,70,48,0.00,40.00,5,3,19,0.00
2013-10-23,51,43,37,43,37,27,95,78,58,0.00,40.00,6,3,16,0.01
2013-10-24,44,37,32,29,26,21,77,64,47,0.00,40.00,7,4,17,0.01
2013-10-25,46,36,31,26,22,19,80,59,36,0.00,40.00,6,3,20,0.00
2013-10-26,55,37,23,29,20,-100,93,58,23,0.00,40.00,7,3,16,0.00
2013-10-27,61,49,40,36,31,27,72,51,31,0.00,40.00,6,3,17,0.00
2013-10-28,65,49,37,46,36,-100,86,67,40,0.00,40.00,6,2,11,0.00
2013-10-29,67,55,45,47,44,41,97,70,40,0.00,40.00,4,2,10,0.00
2013-10-30,62,55,51,57,52,46,98,89,73,0.00,40.00,4,2,9,0.09
2013-10-31,65,59,55,58,55,54,99,88,72,0.00,40.00,6,3,16,0.03
2013-11-1,72,62,57,59,51,36,96,70,37,0.00,40.00,9,5,25,0.20
2013-11-2,60,52,44,41,34,-100,70,54,36,0.00,40.00,6,4,21,0.01
2013-11-3,52,45,39,40,30,22,77,58,41,0.00,40.00,6,3,16,0.00
2013-11-4,48,39,32,27,23,18,65,53,40,0.00,40.00,3,2,9,0.00
2013-11-5,49,41,31,38,31,23,77,67,46,0.00,40.00,4,1,11,0.00
2013-11-6,66,52,43,48,44,39,98,78,50,0.00,40.00,7,3,14,0.00
2013-11-7,54,48,38,51,38,22,94,69,49,0.00,40.00,8,5,19,0.03
2013-11-8,46,39,35,25,20,17,58,47,34,0.00,40.00,8,4,20,0.01
2013-11-9,56,39,28,25,21,-100,76,52,29,0.00,40.00,6,3,20,0.00
2013-11-10,61,48,38,32,24,20,53,39,23,0.00,40.00,10,6,21,0.00
2013-11-11,60,46,34,27,22,19,65,41,21,0.00,40.00,6,4,21,0.00
2013-11-12,54,36,26,31,17,9,62,47,20,0.00,40.00,9,6,22,0.00
2013-11-13,40,30,23,17,9,2,71,43,23,0.00,40.00,6,4,21,0.00
2013-11-14,59,40,25,16,11,7,58,35,15,0.00,40.00,5,3,14,0.00
2013-11-15,62,44,31,42,18,8,93,39,12,0.00,40.00,5,2,20,0.09
2013-11-16,51,46,42,49,44,-100,99,95,91,0.00,40.00,3,2,9,0.15
2013-11-17,55,52,49,55,52,49,99,99,99,0.00,40.00,6,4,20,0.15
2013-11-18,60,52,42,57,32,20,99,48,22,0.00,40.00,8,6,27,0.26
2013-11-19,44,38,31,23,21,18,65,50,39,0.00,40.00,6,4,22,0.01
2013-11-20,45,35,28,21,19,16,73,53,35,0.00,40.00,5,3,10,0.00
2013-11-21,44,39,31,37,31,18,88,73,54,0.00,40.00,2,1,6,0.00
2013-11-22,60,51,40,54,46,36,91,81,69,0.00,40.00,8,3,17,0.00
2013-11-23,52,41,26,44,24,-100,77,54,29,0.00,40.00,8,5,21,0.00
2013-11-24,26,20,15,10,-1,-4,58,40,27,0.00,40.00,9,6,22,0.00
2013-11-25,35,23,14,8,4,-1,59,43,26,0.00,40.00,5,3,11,0.00
2013-11-26,41,34,26,41,31,8,99,91,40,0.00,40.00,4,2,8,2.37
2013-11-27,42,31,21,42,23,7,99,72,54,0.00,40.00,7,5,24,1.06
2013-11-28,38,26,19,16,12,8,65,54,38,0.00,40.00,7,3,28,0.02
2013-11-29,43,32,26,19,15,11,62,50,32,0.00,40.00,5,2,13,0.00
2013-11-30,36,28,22,19,16,-100,75,64,50,0.00,40.00,6,2,11,0.00
2013-12-1,51,35,22,29,23,18,87,64,37,0.00,40.00,5,2,11,0.00
2013-12-2,49,44,39,33,31,27,68,60,51,0.00,40.00,3,2,7,0.00
2013-12-3,54,44,36,39,35,31,85,71,52,0.00,40.00,3,2,7,0.00
2013-12-4,57,49,44,49,44,38,91,81,67,0.00,40.00,4,2,10,0.00
2013-12-5,65,56,49,58,53,48,97,88,71,0.00,40.00,6,3,12,0.00
2013-12-6,60,54,40,60,53,39,99,98,94,0.00,40.00,8,4,20,1.40
2013-12-7,41,36,28,38,28,-100,99,78,61,0.00,40.00,6,4,15,0.83
2013-12-8,31,28,24,31,24,20,98,86,69,0.00,40.00,1,0,3,0.17
2013-12-9,47,32,31,42,16,-100,98,78,75,0.00,40.00,5,2,14,1.21
2013-12-10,35,32,26,32,23,11,98,72,50,0.00,40.00,8,4,24,0.35
2013-12-11,40,31,22,17,14,10,65,49,37,0.00,40.00,8,4,22,0.04
2013-12-12,31,25,19,15,5,-4,58,43,25,0.00,40.00,6,3,21,0.03
2013-12-13,41,31,23,12,7,3,46,37,27,0.00,40.00,7,3,18,0.00
2013-12-14,34,31,28,32,26,-100,98,86,32,0.00,40.00,2,0,6,0.10
2013-12-15,37,33,30,35,26,20,98,74,57,0.00,40.00,7,4,19,0.22
2013-12-16,37,32,29,27,24,20,79,71,63,0.00,40.00,6,3,19,0.01
2013-12-17,44,37,31,36,31,26,94,79,61,0.00,40.00,10,5,30,0.14
2013-12-18,38,31,26,23,17,14,79,56,42,0.00,40.00,8,5,18,0.11
2013-12-19,58,45,29,22,18,11,52,35,24,0.00,40.00,8,4,20,0.01
2013-12-20,62,49,41,34,26,21,55,41,29,0.00,40.00,6,3,19,0.00
2013-12-21,63,54,48,55,41,-100,83,63,54,0.00,40.00,8,4,17,0.00
2013-12-22,64,58,54,59,56,52,99,91,79,0.00,40.00,9,6,22,0.48
2013-12-23,55,46,31,55,41,22,99,83,63,0.00,40.00,7,3,16,0.79
2013-12-24,35,26,15,22,13,1,77,59,40,0.00,40.00,6,4,20,0.02
2013-12-25,34,20,11,10,6,1,70,53,31,0.00,40.00,6,2,14,0.00
2013-12-26,42,30,21,20,12,6,62,46,33,0.00,40.00,10,3,24,0.00
2013-12-27,50,36,24,19,14,10,63,41,24,0.00,40.00,6,3,16,0.00
2013-12-28,54,40,29,25,15,-100,58,38,22,0.00,40.00,4,2,14,0.00
2013-12-29,47,40,35,46,36,21,99,87,42,0.00,40.00,8,3,24,1.53
2013-12-30,41,36,30,34,26,20,79,67,58,0.00,40.00,6,3,21,0.01
2013-12-31,38,31,28,23,16,10,75,56,40,0.00,40.00,11,6,23,0.00
2014-1-1,50,33,25,22,17,12,65,52,32,0.00,40.00,6,2,16,0.00
2014-1-2,35,31,28,34,24,17,98,76,58,0.00,40.00,8,2,18,0.08